sensor_id;sensor_type;location;lat;lon;timestamp;temperature;humidity
33428;DHT22;19769;48.150;16.306;2023-05-14T00:00:19;12.90;99.90
33428;DHT22;19769;48.150;16.306;2023-05-14T00:02:45;12.80;99.90
33428;DHT22;19769;48.150;16.306;2023-05-14T00:05:10;12.80;99.90
33428;DHT22;19769;48.150;16.306;2023-05-14T00:07:36;12.80;99.90
33428;DHT22;19769;48.150;16.306;2023-05-14T00:10:02;12.80;99.90
33428;DHT22;19769;48.150;16.306;2023-05-14T00:12:27;12.80;99.90
33428;DHT22;19769;48.150;16.306;2023-05-14T00:14:54;12.80;99.90
33428;DHT22;19769;48.150;16.306;2023-05-14T00:17:20;12.80;99.90
33428;DHT22;19769;48.150;16.306;2023-05-14T00:19:46;12.80;99.90
33428;DHT22;19769;48.150;16.306;2023-05-14T00:22:11;12.80;99.90
33428;DHT22;19769;48.150;16.306;2023-05-14T00:24:37;12.80;99.90
33428;DHT22;19769;48.150;16.306;2023-05-14T00:27:03;12.80;99.90
33428;DHT22;19769;48.150;16.306;2023-05-14T00:29:28;12.80;99.90
33428;DHT22;19769;48.150;16.306;2023-05-14T00:31:54;12.80;99.90
33428;DHT22;19769;48.150;16.306;2023-05-14T00:34:20;12.80;99.90
33428;DHT22;19769;48.150;16.306;2023-05-14T00:36:46;12.80;99.90
33428;DHT22;19769;48.150;16.306;2023-05-14T00:39:12;12.70;99.90
33428;DHT22;19769;48.150;16.306;2023-05-14T00:41:37;12.80;99.90
33428;DHT22;19769;48.150;16.306;2023-05-14T00:44:03;12.80;99.90
33428;DHT22;19769;48.150;16.306;2023-05-14T00:46:29;12.70;99.90
33428;DHT22;19769;48.150;16.306;2023-05-14T00:48:54;12.70;99.90
33428;DHT22;19769;48.150;16.306;2023-05-14T00:51:20;12.70;99.90
33428;DHT22;19769;48.150;16.306;2023-05-14T00:53:46;12.70;99.90
33428;DHT22;19769;48.150;16.306;2023-05-14T00:56:12;12.70;99.90
33428;DHT22;19769;48.150;16.306;2023-05-14T00:58:38;12.70;99.90
33428;DHT22;19769;48.150;16.306;2023-05-14T01:01:04;12.70;99.90
33428;DHT22;19769;48.150;16.306;2023-05-14T01:03:30;12.70;99.90
33428;DHT22;19769;48.150;16.306;2023-05-14T01:11:05;12.70;99.90
33428;DHT22;19769;48.150;16.306;2023-05-14T01:15:57;12.70;99.90
33428;DHT22;19769;48.150;16.306;2023-05-14T01:18:23;12.70;99.90
33428;DHT22;19769;48.150;16.306;2023-05-14T01:20:49;12.60;99.90
33428;DHT22;19769;48.150;16.306;2023-05-14T01:23:18;12.60;99.90
33428;DHT22;19769;48.150;16.306;2023-05-14T01:25:44;12.60;99.90
33428;DHT22;19769;48.150;16.306;2023-05-14T01:30:52;12.50;99.90
33428;DHT22;19769;48.150;16.306;2023-05-14T01:33:18;12.50;99.90
33428;DHT22;19769;48.150;16.306;2023-05-14T01:35:44;14.00;99.90
33428;DHT22;19769;48.150;16.306;2023-05-14T01:38:11;12.50;99.90
33428;DHT22;19769;48.150;16.306;2023-05-14T01:40:38;12.60;99.90
33428;DHT22;19769;48.150;16.306;2023-05-14T01:43:04;12.60;99.90
33428;DHT22;19769;48.150;16.306;2023-05-14T01:45:30;12.60;99.90
33428;DHT22;19769;48.150;16.306;2023-05-14T01:47:56;12.60;99.90
33428;DHT22;19769;48.150;16.306;2023-05-14T01:50:21;12.50;99.90
33428;DHT22;19769;48.150;16.306;2023-05-14T01:52:48;12.60;99.90
33428;DHT22;19769;48.150;16.306;2023-05-14T01:55:15;12.60;99.90
33428;DHT22;19769;48.150;16.306;2023-05-14T01:57:42;12.60;99.90
33428;DHT22;19769;48.150;16.306;2023-05-14T02:00:08;12.60;99.90
33428;DHT22;19769;48.150;16.306;2023-05-14T02:02:39;12.60;99.90
33428;DHT22;19769;48.150;16.306;2023-05-14T02:05:07;12.60;99.90
33428;DHT22;19769;48.150;16.306;2023-05-14T02:07:33;12.60;99.90
33428;DHT22;19769;48.150;16.306;2023-05-14T02:09:58;12.50;99.90
33428;DHT22;19769;48.150;16.306;2023-05-14T02:12:25;12.60;99.90
33428;DHT22;19769;48.150;16.306;2023-05-14T02:14:51;12.50;99.90
33428;DHT22;19769;48.150;16.306;2023-05-14T02:17:16;12.50;99.90
33428;DHT22;19769;48.150;16.306;2023-05-14T02:19:43;12.50;99.90
33428;DHT22;19769;48.150;16.306;2023-05-14T02:22:08;12.60;99.90
33428;DHT22;19769;48.150;16.306;2023-05-14T02:24:34;12.50;99.90
33428;DHT22;19769;48.150;16.306;2023-05-14T02:27:00;12.50;99.90
33428;DHT22;19769;48.150;16.306;2023-05-14T02:29:26;12.40;99.90
33428;DHT22;19769;48.150;16.306;2023-05-14T02:31:51;12.50;99.90
33428;DHT22;19769;48.150;16.306;2023-05-14T02:34:17;12.40;99.90
33428;DHT22;19769;48.150;16.306;2023-05-14T02:36:43;12.40;99.90
33428;DHT22;19769;48.150;16.306;2023-05-14T02:39:08;12.40;99.90
33428;DHT22;19769;48.150;16.306;2023-05-14T02:41:34;12.40;99.90
33428;DHT22;19769;48.150;16.306;2023-05-14T02:44:00;12.40;99.90
33428;DHT22;19769;48.150;16.306;2023-05-14T02:46:25;12.50;99.90
33428;DHT22;19769;48.150;16.306;2023-05-14T02:48:51;12.50;99.90
33428;DHT22;19769;48.150;16.306;2023-05-14T02:51:18;12.50;99.90
33428;DHT22;19769;48.150;16.306;2023-05-14T02:53:44;12.50;99.90
33428;DHT22;19769;48.150;16.306;2023-05-14T02:56:09;12.60;99.90
33428;DHT22;19769;48.150;16.306;2023-05-14T02:58:35;12.50;99.90
33428;DHT22;19769;48.150;16.306;2023-05-14T03:01:00;12.50;99.90
33428;DHT22;19769;48.150;16.306;2023-05-14T03:03:27;12.50;99.90
33428;DHT22;19769;48.150;16.306;2023-05-14T03:05:53;12.50;99.90
33428;DHT22;19769;48.150;16.306;2023-05-14T03:08:19;12.50;99.90
33428;DHT22;19769;48.150;16.306;2023-05-14T03:10:44;12.50;99.90
33428;DHT22;19769;48.150;16.306;2023-05-14T03:13:10;12.50;99.90
33428;DHT22;19769;48.150;16.306;2023-05-14T03:15:36;12.50;99.90
33428;DHT22;19769;48.150;16.306;2023-05-14T03:18:01;12.50;99.90
33428;DHT22;19769;48.150;16.306;2023-05-14T03:20:27;12.60;99.90
33428;DHT22;19769;48.150;16.306;2023-05-14T03:22:53;12.50;99.90
33428;DHT22;19769;48.150;16.306;2023-05-14T03:25:19;12.60;99.90
33428;DHT22;19769;48.150;16.306;2023-05-14T03:27:44;12.50;99.90
33428;DHT22;19769;48.150;16.306;2023-05-14T03:30:10;12.50;99.90
33428;DHT22;19769;48.150;16.306;2023-05-14T03:32:36;12.50;99.90
33428;DHT22;19769;48.150;16.306;2023-05-14T03:35:02;12.60;99.90
33428;DHT22;19769;48.150;16.306;2023-05-14T03:37:27;12.60;99.90
33428;DHT22;19769;48.150;16.306;2023-05-14T03:39:53;12.50;99.90
33428;DHT22;19769;48.150;16.306;2023-05-14T03:42:19;12.50;99.90
33428;DHT22;19769;48.150;16.306;2023-05-14T03:44:44;12.60;99.90
33428;DHT22;19769;48.150;16.306;2023-05-14T03:47:10;12.60;99.90
33428;DHT22;19769;48.150;16.306;2023-05-14T03:49:36;12.70;99.90
33428;DHT22;19769;48.150;16.306;2023-05-14T03:52:02;12.60;99.90
33428;DHT22;19769;48.150;16.306;2023-05-14T03:54:28;12.60;99.90
33428;DHT22;19769;48.150;16.306;2023-05-14T03:56:54;12.60;99.90
33428;DHT22;19769;48.150;16.306;2023-05-14T03:59:19;12.60;99.90
33428;DHT22;19769;48.150;16.306;2023-05-14T04:01:45;12.60;99.90
33428;DHT22;19769;48.150;16.306;2023-05-14T04:04:11;12.60;99.90
33428;DHT22;19769;48.150;16.306;2023-05-14T04:06:36;12.60;99.90
33428;DHT22;19769;48.150;16.306;2023-05-14T04:09:02;12.60;99.90
33428;DHT22;19769;48.150;16.306;2023-05-14T04:11:28;12.60;99.90
33428;DHT22;19769;48.150;16.306;2023-05-14T04:13:53;12.50;99.90
33428;DHT22;19769;48.150;16.306;2023-05-14T04:16:19;12.60;99.90
33428;DHT22;19769;48.150;16.306;2023-05-14T04:18:45;12.60;99.90
33428;DHT22;19769;48.150;16.306;2023-05-14T04:21:10;12.60;99.90
33428;DHT22;19769;48.150;16.306;2023-05-14T04:23:36;12.50;99.90
33428;DHT22;19769;48.150;16.306;2023-05-14T04:26:02;12.60;99.90
33428;DHT22;19769;48.150;16.306;2023-05-14T04:28:29;12.60;99.90
33428;DHT22;19769;48.150;16.306;2023-05-14T04:30:55;12.50;99.90
33428;DHT22;19769;48.150;16.306;2023-05-14T04:33:21;12.60;99.90
33428;DHT22;19769;48.150;16.306;2023-05-14T04:35:46;12.60;99.90
33428;DHT22;19769;48.150;16.306;2023-05-14T04:38:12;12.60;99.90
33428;DHT22;19769;48.150;16.306;2023-05-14T04:40:38;12.60;99.90
33428;DHT22;19769;48.150;16.306;2023-05-14T04:43:05;12.80;99.90
33428;DHT22;19769;48.150;16.306;2023-05-14T04:45:32;12.60;99.90
33428;DHT22;19769;48.150;16.306;2023-05-14T04:47:57;12.60;99.90
33428;DHT22;19769;48.150;16.306;2023-05-14T04:50:23;12.60;99.90
33428;DHT22;19769;48.150;16.306;2023-05-14T04:52:49;12.60;99.90
33428;DHT22;19769;48.150;16.306;2023-05-14T04:55:14;12.60;99.90
33428;DHT22;19769;48.150;16.306;2023-05-14T04:57:40;12.50;99.90
33428;DHT22;19769;48.150;16.306;2023-05-14T05:00:06;12.60;99.90
33428;DHT22;19769;48.150;16.306;2023-05-14T05:02:33;12.50;99.90
33428;DHT22;19769;48.150;16.306;2023-05-14T05:04:59;12.50;99.90
33428;DHT22;19769;48.150;16.306;2023-05-14T05:07:25;12.50;99.90
33428;DHT22;19769;48.150;16.306;2023-05-14T05:09:50;12.50;99.90
33428;DHT22;19769;48.150;16.306;2023-05-14T05:12:16;12.50;99.90
33428;DHT22;19769;48.150;16.306;2023-05-14T05:14:41;12.50;99.90
33428;DHT22;19769;48.150;16.306;2023-05-14T05:17:07;12.50;99.90
33428;DHT22;19769;48.150;16.306;2023-05-14T05:19:33;12.50;99.90
33428;DHT22;19769;48.150;16.306;2023-05-14T05:21:58;12.50;99.90
33428;DHT22;19769;48.150;16.306;2023-05-14T05:24:24;12.50;99.90
33428;DHT22;19769;48.150;16.306;2023-05-14T05:26:50;12.50;99.90
33428;DHT22;19769;48.150;16.306;2023-05-14T05:29:16;12.50;99.90
33428;DHT22;19769;48.150;16.306;2023-05-14T05:31:41;12.60;99.90
33428;DHT22;19769;48.150;16.306;2023-05-14T05:34:07;12.60;99.90
33428;DHT22;19769;48.150;16.306;2023-05-14T05:36:33;12.60;99.90
33428;DHT22;19769;48.150;16.306;2023-05-14T05:38:58;12.60;99.90
33428;DHT22;19769;48.150;16.306;2023-05-14T05:41:24;12.60;99.90
33428;DHT22;19769;48.150;16.306;2023-05-14T05:43:51;12.60;99.90
33428;DHT22;19769;48.150;16.306;2023-05-14T05:46:17;12.60;99.90
33428;DHT22;19769;48.150;16.306;2023-05-14T05:48:43;12.60;99.90
33428;DHT22;19769;48.150;16.306;2023-05-14T05:51:08;12.60;99.90
33428;DHT22;19769;48.150;16.306;2023-05-14T05:53:34;12.60;99.90
33428;DHT22;19769;48.150;16.306;2023-05-14T05:56:00;12.60;99.90
33428;DHT22;19769;48.150;16.306;2023-05-14T05:58:25;12.60;99.90
33428;DHT22;19769;48.150;16.306;2023-05-14T06:00:51;12.60;99.90
33428;DHT22;19769;48.150;16.306;2023-05-14T06:03:17;12.60;99.90
33428;DHT22;19769;48.150;16.306;2023-05-14T06:05:43;12.60;99.90
33428;DHT22;19769;48.150;16.306;2023-05-14T06:08:09;12.60;99.90
33428;DHT22;19769;48.150;16.306;2023-05-14T06:10:34;12.60;99.90
33428;DHT22;19769;48.150;16.306;2023-05-14T06:13:01;12.50;99.90
33428;DHT22;19769;48.150;16.306;2023-05-14T06:15:27;12.60;99.90
33428;DHT22;19769;48.150;16.306;2023-05-14T06:17:53;12.50;99.90
33428;DHT22;19769;48.150;16.306;2023-05-14T06:20:18;12.50;99.90
33428;DHT22;19769;48.150;16.306;2023-05-14T06:22:44;12.50;99.90
33428;DHT22;19769;48.150;16.306;2023-05-14T06:25:10;12.50;99.90
33428;DHT22;19769;48.150;16.306;2023-05-14T06:27:35;12.40;99.90
33428;DHT22;19769;48.150;16.306;2023-05-14T06:30:01;12.50;99.90
33428;DHT22;19769;48.150;16.306;2023-05-14T06:32:27;12.50;99.90
33428;DHT22;19769;48.150;16.306;2023-05-14T06:34:52;12.50;99.90
33428;DHT22;19769;48.150;16.306;2023-05-14T06:37:18;12.80;99.90
33428;DHT22;19769;48.150;16.306;2023-05-14T06:39:43;12.40;99.90
33428;DHT22;19769;48.150;16.306;2023-05-14T06:42:14;12.40;99.90
33428;DHT22;19769;48.150;16.306;2023-05-14T06:44:40;12.40;99.90
33428;DHT22;19769;48.150;16.306;2023-05-14T06:47:06;12.40;99.90
33428;DHT22;19769;48.150;16.306;2023-05-14T06:49:33;12.40;99.90
33428;DHT22;19769;48.150;16.306;2023-05-14T06:51:59;12.40;99.90
33428;DHT22;19769;48.150;16.306;2023-05-14T06:54:24;12.40;99.90
33428;DHT22;19769;48.150;16.306;2023-05-14T06:56:50;12.30;99.90
33428;DHT22;19769;48.150;16.306;2023-05-14T06:59:16;12.40;99.90
33428;DHT22;19769;48.150;16.306;2023-05-14T07:01:41;12.40;99.90
33428;DHT22;19769;48.150;16.306;2023-05-14T07:04:07;12.40;99.90
33428;DHT22;19769;48.150;16.306;2023-05-14T07:06:32;12.30;99.90
33428;DHT22;19769;48.150;16.306;2023-05-14T07:08:59;12.30;99.90
33428;DHT22;19769;48.150;16.306;2023-05-14T07:11:25;12.30;99.90
33428;DHT22;19769;48.150;16.306;2023-05-14T07:13:51;12.30;99.90
33428;DHT22;19769;48.150;16.306;2023-05-14T07:16:17;12.30;99.90
33428;DHT22;19769;48.150;16.306;2023-05-14T07:18:43;12.30;99.90
33428;DHT22;19769;48.150;16.306;2023-05-14T07:21:09;12.30;99.90
33428;DHT22;19769;48.150;16.306;2023-05-14T07:23:34;12.30;99.90
33428;DHT22;19769;48.150;16.306;2023-05-14T07:26:01;12.30;99.90
33428;DHT22;19769;48.150;16.306;2023-05-14T07:28:27;12.20;99.90
33428;DHT22;19769;48.150;16.306;2023-05-14T07:30:53;12.40;99.90
33428;DHT22;19769;48.150;16.306;2023-05-14T07:33:19;12.30;99.90
33428;DHT22;19769;48.150;16.306;2023-05-14T07:35:47;12.30;99.90
33428;DHT22;19769;48.150;16.306;2023-05-14T07:38:13;12.30;99.90
33428;DHT22;19769;48.150;16.306;2023-05-14T07:40:40;12.20;99.90
33428;DHT22;19769;48.150;16.306;2023-05-14T07:43:05;12.20;99.90
33428;DHT22;19769;48.150;16.306;2023-05-14T07:45:31;12.20;99.90
33428;DHT22;19769;48.150;16.306;2023-05-14T07:47:57;12.20;99.90
33428;DHT22;19769;48.150;16.306;2023-05-14T07:50:23;12.20;99.90
33428;DHT22;19769;48.150;16.306;2023-05-14T07:52:49;12.30;99.90
33428;DHT22;19769;48.150;16.306;2023-05-14T07:55:24;12.20;99.90
33428;DHT22;19769;48.150;16.306;2023-05-14T07:57:50;12.20;99.90
33428;DHT22;19769;48.150;16.306;2023-05-14T08:00:15;12.20;99.90
33428;DHT22;19769;48.150;16.306;2023-05-14T08:02:41;12.20;99.90
33428;DHT22;19769;48.150;16.306;2023-05-14T08:05:09;12.10;99.90
33428;DHT22;19769;48.150;16.306;2023-05-14T08:07:34;12.10;99.90
33428;DHT22;19769;48.150;16.306;2023-05-14T08:10:10;12.20;99.90
33428;DHT22;19769;48.150;16.306;2023-05-14T08:12:39;12.20;99.90
33428;DHT22;19769;48.150;16.306;2023-05-14T08:15:05;12.10;99.90
33428;DHT22;19769;48.150;16.306;2023-05-14T08:17:32;12.20;99.90
33428;DHT22;19769;48.150;16.306;2023-05-14T08:19:58;12.30;99.90
33428;DHT22;19769;48.150;16.306;2023-05-14T08:22:26;12.20;99.90
33428;DHT22;19769;48.150;16.306;2023-05-14T08:24:52;12.20;99.90
33428;DHT22;19769;48.150;16.306;2023-05-14T08:27:18;12.30;99.90
33428;DHT22;19769;48.150;16.306;2023-05-14T08:29:44;12.20;99.90
33428;DHT22;19769;48.150;16.306;2023-05-14T08:32:09;12.20;99.90
33428;DHT22;19769;48.150;16.306;2023-05-14T08:34:35;12.20;99.90
33428;DHT22;19769;48.150;16.306;2023-05-14T08:37:01;12.20;99.90
33428;DHT22;19769;48.150;16.306;2023-05-14T08:39:27;12.60;99.90
33428;DHT22;19769;48.150;16.306;2023-05-14T08:42:08;13.70;99.90
33428;DHT22;19769;48.150;16.306;2023-05-14T08:44:46;11.00;99.90
33428;DHT22;19769;48.150;16.306;2023-05-14T08:47:13;12.20;99.90
33428;DHT22;19769;48.150;16.306;2023-05-14T08:49:40;12.20;99.90
33428;DHT22;19769;48.150;16.306;2023-05-14T08:52:11;12.20;99.90
33428;DHT22;19769;48.150;16.306;2023-05-14T08:54:45;12.30;99.90
33428;DHT22;19769;48.150;16.306;2023-05-14T08:57:15;12.10;99.90
33428;DHT22;19769;48.150;16.306;2023-05-14T08:59:43;12.20;99.90
33428;DHT22;19769;48.150;16.306;2023-05-14T09:02:11;12.80;99.90
33428;DHT22;19769;48.150;16.306;2023-05-14T09:07:49;12.40;99.90
33428;DHT22;19769;48.150;16.306;2023-05-14T09:10:30;12.20;99.90
33428;DHT22;19769;48.150;16.306;2023-05-14T09:13:29;13.60;99.90
33428;DHT22;19769;48.150;16.306;2023-05-14T09:15:55;11.30;99.90
33428;DHT22;19769;48.150;16.306;2023-05-14T09:18:21;12.30;99.90
33428;DHT22;19769;48.150;16.306;2023-05-14T09:20:47;12.30;99.90
33428;DHT22;19769;48.150;16.306;2023-05-14T09:23:13;12.30;99.90
33428;DHT22;19769;48.150;16.306;2023-05-14T09:25:39;12.40;99.90
33428;DHT22;19769;48.150;16.306;2023-05-14T09:28:05;12.40;99.90
33428;DHT22;19769;48.150;16.306;2023-05-14T09:30:32;12.50;99.90
33428;DHT22;19769;48.150;16.306;2023-05-14T09:33:01;12.50;99.90
33428;DHT22;19769;48.150;16.306;2023-05-14T09:35:41;12.60;99.90
33428;DHT22;19769;48.150;16.306;2023-05-14T09:38:07;12.70;99.90
33428;DHT22;19769;48.150;16.306;2023-05-14T09:40:33;12.50;99.90
33428;DHT22;19769;48.150;16.306;2023-05-14T09:43:05;12.50;99.90
33428;DHT22;19769;48.150;16.306;2023-05-14T09:46:04;12.50;99.90
33428;DHT22;19769;48.150;16.306;2023-05-14T09:48:30;12.50;99.90
33428;DHT22;19769;48.150;16.306;2023-05-14T09:50:57;12.50;99.90
33428;DHT22;19769;48.150;16.306;2023-05-14T09:53:23;12.50;99.90
33428;DHT22;19769;48.150;16.306;2023-05-14T09:55:49;12.40;99.90
33428;DHT22;19769;48.150;16.306;2023-05-14T09:58:15;12.80;99.90
33428;DHT22;19769;48.150;16.306;2023-05-14T10:00:44;12.50;99.90
33428;DHT22;19769;48.150;16.306;2023-05-14T10:03:12;12.60;99.90
33428;DHT22;19769;48.150;16.306;2023-05-14T10:05:47;12.60;99.90
33428;DHT22;19769;48.150;16.306;2023-05-14T10:08:26;12.60;99.90
33428;DHT22;19769;48.150;16.306;2023-05-14T10:10:55;12.20;99.90
33428;DHT22;19769;48.150;16.306;2023-05-14T10:13:23;12.70;99.90
33428;DHT22;19769;48.150;16.306;2023-05-14T10:16:01;12.70;99.90
33428;DHT22;19769;48.150;16.306;2023-05-14T10:18:37;12.70;99.90
33428;DHT22;19769;48.150;16.306;2023-05-14T10:21:04;12.70;99.90
33428;DHT22;19769;48.150;16.306;2023-05-14T10:23:30;12.60;99.90
33428;DHT22;19769;48.150;16.306;2023-05-14T10:25:59;12.60;99.90
33428;DHT22;19769;48.150;16.306;2023-05-14T10:28:26;12.60;99.90
33428;DHT22;19769;48.150;16.306;2023-05-14T10:30:52;12.70;99.90
33428;DHT22;19769;48.150;16.306;2023-05-14T10:33:18;12.70;99.90
33428;DHT22;19769;48.150;16.306;2023-05-14T10:35:54;12.70;99.90
33428;DHT22;19769;48.150;16.306;2023-05-14T10:38:42;11.60;99.90
33428;DHT22;19769;48.150;16.306;2023-05-14T10:41:10;11.90;99.90
33428;DHT22;19769;48.150;16.306;2023-05-14T10:43:41;13.10;99.90
33428;DHT22;19769;48.150;16.306;2023-05-14T10:46:09;13.50;99.90
33428;DHT22;19769;48.150;16.306;2023-05-14T10:48:36;13.10;99.90
33428;DHT22;19769;48.150;16.306;2023-05-14T10:51:02;13.30;99.90
33428;DHT22;19769;48.150;16.306;2023-05-14T10:53:32;13.40;99.90
33428;DHT22;19769;48.150;16.306;2023-05-14T10:56:00;13.50;99.90
33428;DHT22;19769;48.150;16.306;2023-05-14T10:58:29;13.60;99.90
33428;DHT22;19769;48.150;16.306;2023-05-14T11:00:55;13.50;99.90
33428;DHT22;19769;48.150;16.306;2023-05-14T11:03:21;13.40;99.90
33428;DHT22;19769;48.150;16.306;2023-05-14T11:05:46;13.30;99.90
33428;DHT22;19769;48.150;16.306;2023-05-14T11:08:12;13.20;99.90
33428;DHT22;19769;48.150;16.306;2023-05-14T11:10:38;13.20;99.90
33428;DHT22;19769;48.150;16.306;2023-05-14T11:13:06;13.10;99.90
33428;DHT22;19769;48.150;16.306;2023-05-14T11:15:31;13.10;99.90
33428;DHT22;19769;48.150;16.306;2023-05-14T11:17:57;13.00;99.90
33428;DHT22;19769;48.150;16.306;2023-05-14T11:20:22;12.90;99.90
33428;DHT22;19769;48.150;16.306;2023-05-14T11:22:48;13.00;99.90
33428;DHT22;19769;48.150;16.306;2023-05-14T11:25:16;13.00;99.90
33428;DHT22;19769;48.150;16.306;2023-05-14T11:27:43;12.90;99.90
33428;DHT22;19769;48.150;16.306;2023-05-14T11:32:38;13.10;99.90
33428;DHT22;19769;48.150;16.306;2023-05-14T11:35:05;13.30;99.90
33428;DHT22;19769;48.150;16.306;2023-05-14T11:37:31;13.30;99.90
33428;DHT22;19769;48.150;16.306;2023-05-14T11:39:58;13.40;99.90
33428;DHT22;19769;48.150;16.306;2023-05-14T11:42:24;13.30;99.90
33428;DHT22;19769;48.150;16.306;2023-05-14T11:44:50;13.30;99.90
33428;DHT22;19769;48.150;16.306;2023-05-14T11:47:17;13.40;99.90
33428;DHT22;19769;48.150;16.306;2023-05-14T11:49:43;13.50;99.90
33428;DHT22;19769;48.150;16.306;2023-05-14T11:52:10;13.40;99.90
33428;DHT22;19769;48.150;16.306;2023-05-14T11:54:37;13.30;99.90
33428;DHT22;19769;48.150;16.306;2023-05-14T11:57:09;13.30;99.90
33428;DHT22;19769;48.150;16.306;2023-05-14T11:59:36;13.30;99.90
33428;DHT22;19769;48.150;16.306;2023-05-14T12:02:02;13.30;99.90
33428;DHT22;19769;48.150;16.306;2023-05-14T12:04:29;13.30;99.90
33428;DHT22;19769;48.150;16.306;2023-05-14T12:06:56;13.20;99.90
33428;DHT22;19769;48.150;16.306;2023-05-14T12:09:22;13.20;99.90
33428;DHT22;19769;48.150;16.306;2023-05-14T12:11:49;13.20;99.90
33428;DHT22;19769;48.150;16.306;2023-05-14T12:14:16;12.80;99.90
33428;DHT22;19769;48.150;16.306;2023-05-14T12:16:45;13.20;99.90
33428;DHT22;19769;48.150;16.306;2023-05-14T12:19:12;13.10;99.90
33428;DHT22;19769;48.150;16.306;2023-05-14T12:21:39;13.10;99.90
33428;DHT22;19769;48.150;16.306;2023-05-14T12:24:08;13.10;99.90
33428;DHT22;19769;48.150;16.306;2023-05-14T12:26:35;13.10;99.90
33428;DHT22;19769;48.150;16.306;2023-05-14T12:29:03;13.10;99.90
33428;DHT22;19769;48.150;16.306;2023-05-14T12:31:29;13.00;99.90
33428;DHT22;19769;48.150;16.306;2023-05-14T12:33:55;13.20;99.90
33428;DHT22;19769;48.150;16.306;2023-05-14T12:36:21;13.00;99.90
33428;DHT22;19769;48.150;16.306;2023-05-14T12:38:47;13.00;99.90
33428;DHT22;19769;48.150;16.306;2023-05-14T12:41:13;13.10;99.90
33428;DHT22;19769;48.150;16.306;2023-05-14T12:43:41;13.00;99.90
33428;DHT22;19769;48.150;16.306;2023-05-14T12:46:07;13.10;99.90
33428;DHT22;19769;48.150;16.306;2023-05-14T12:48:33;13.10;99.90
33428;DHT22;19769;48.150;16.306;2023-05-14T12:50:58;13.20;99.90
33428;DHT22;19769;48.150;16.306;2023-05-14T12:53:24;13.10;99.90
33428;DHT22;19769;48.150;16.306;2023-05-14T12:55:49;13.20;99.90
33428;DHT22;19769;48.150;16.306;2023-05-14T12:58:15;13.20;99.90
33428;DHT22;19769;48.150;16.306;2023-05-14T13:00:41;13.30;99.90
33428;DHT22;19769;48.150;16.306;2023-05-14T13:03:07;13.30;99.90
33428;DHT22;19769;48.150;16.306;2023-05-14T13:05:32;13.30;99.90
33428;DHT22;19769;48.150;16.306;2023-05-14T13:07:59;13.30;99.90
33428;DHT22;19769;48.150;16.306;2023-05-14T13:10:25;13.30;99.90
33428;DHT22;19769;48.150;16.306;2023-05-14T13:12:50;13.30;99.90
33428;DHT22;19769;48.150;16.306;2023-05-14T13:15:17;13.40;99.90
33428;DHT22;19769;48.150;16.306;2023-05-14T13:17:42;13.40;99.90
33428;DHT22;19769;48.150;16.306;2023-05-14T13:20:08;13.40;99.90
33428;DHT22;19769;48.150;16.306;2023-05-14T13:22:34;13.40;99.90
33428;DHT22;19769;48.150;16.306;2023-05-14T13:25:00;12.20;99.90
33428;DHT22;19769;48.150;16.306;2023-05-14T13:27:25;13.30;99.90
33428;DHT22;19769;48.150;16.306;2023-05-14T13:29:51;13.30;99.90
33428;DHT22;19769;48.150;16.306;2023-05-14T13:32:17;13.30;99.90
33428;DHT22;19769;48.150;16.306;2023-05-14T13:34:42;13.40;99.90
33428;DHT22;19769;48.150;16.306;2023-05-14T13:37:08;13.30;99.90
33428;DHT22;19769;48.150;16.306;2023-05-14T13:39:34;13.40;99.90
33428;DHT22;19769;48.150;16.306;2023-05-14T13:42:00;13.40;99.90
33428;DHT22;19769;48.150;16.306;2023-05-14T13:44:25;13.50;99.90
33428;DHT22;19769;48.150;16.306;2023-05-14T13:46:52;13.60;99.90
33428;DHT22;19769;48.150;16.306;2023-05-14T13:49:17;13.70;99.90
33428;DHT22;19769;48.150;16.306;2023-05-14T13:51:43;13.70;99.90
33428;DHT22;19769;48.150;16.306;2023-05-14T13:54:21;13.60;99.90
33428;DHT22;19769;48.150;16.306;2023-05-14T13:56:52;14.20;99.90
33428;DHT22;19769;48.150;16.306;2023-05-14T13:59:18;13.50;99.90
33428;DHT22;19769;48.150;16.306;2023-05-14T14:01:45;13.50;99.90
33428;DHT22;19769;48.150;16.306;2023-05-14T14:04:12;13.50;99.90
33428;DHT22;19769;48.150;16.306;2023-05-14T14:06:40;12.70;99.90
33428;DHT22;19769;48.150;16.306;2023-05-14T14:09:06;13.40;99.90
33428;DHT22;19769;48.150;16.306;2023-05-14T14:11:32;13.40;99.90
33428;DHT22;19769;48.150;16.306;2023-05-14T14:13:58;13.40;99.90
33428;DHT22;19769;48.150;16.306;2023-05-14T14:16:23;13.40;99.90
33428;DHT22;19769;48.150;16.306;2023-05-14T14:18:49;13.30;99.90
33428;DHT22;19769;48.150;16.306;2023-05-14T14:21:15;13.30;99.90
33428;DHT22;19769;48.150;16.306;2023-05-14T14:23:45;13.40;99.90
33428;DHT22;19769;48.150;16.306;2023-05-14T14:26:17;13.40;99.90
33428;DHT22;19769;48.150;16.306;2023-05-14T14:28:55;13.40;99.90
33428;DHT22;19769;48.150;16.306;2023-05-14T14:31:21;13.40;99.90
33428;DHT22;19769;48.150;16.306;2023-05-14T14:33:47;13.30;99.90
33428;DHT22;19769;48.150;16.306;2023-05-14T14:36:12;13.30;99.90
33428;DHT22;19769;48.150;16.306;2023-05-14T14:38:44;13.40;99.90
33428;DHT22;19769;48.150;16.306;2023-05-14T14:41:10;13.30;99.90
33428;DHT22;19769;48.150;16.306;2023-05-14T14:43:36;13.70;99.90
33428;DHT22;19769;48.150;16.306;2023-05-14T14:46:28;13.20;99.90
33428;DHT22;19769;48.150;16.306;2023-05-14T14:48:54;13.10;99.90
33428;DHT22;19769;48.150;16.306;2023-05-14T14:51:20;13.10;99.90
33428;DHT22;19769;48.150;16.306;2023-05-14T14:53:45;13.10;99.90
33428;DHT22;19769;48.150;16.306;2023-05-14T14:56:11;13.10;99.90
33428;DHT22;19769;48.150;16.306;2023-05-14T14:58:36;13.00;99.90
33428;DHT22;19769;48.150;16.306;2023-05-14T15:01:02;13.00;99.90
33428;DHT22;19769;48.150;16.306;2023-05-14T15:03:28;13.10;99.90
33428;DHT22;19769;48.150;16.306;2023-05-14T15:05:54;13.10;99.90
33428;DHT22;19769;48.150;16.306;2023-05-14T15:08:23;13.10;99.90
33428;DHT22;19769;48.150;16.306;2023-05-14T15:10:48;13.60;99.90
33428;DHT22;19769;48.150;16.306;2023-05-14T15:13:14;13.10;99.90
33428;DHT22;19769;48.150;16.306;2023-05-14T15:15:40;13.10;99.90
33428;DHT22;19769;48.150;16.306;2023-05-14T15:18:05;13.20;99.90
33428;DHT22;19769;48.150;16.306;2023-05-14T15:20:31;13.20;99.90
33428;DHT22;19769;48.150;16.306;2023-05-14T15:22:57;13.10;99.90
33428;DHT22;19769;48.150;16.306;2023-05-14T15:25:23;13.10;99.90
33428;DHT22;19769;48.150;16.306;2023-05-14T15:27:49;13.20;99.90